createdAt,value
2022-08-30T00:01:22.019Z,54.40
2022-08-30T00:03:48.880Z,56.17
2022-08-30T00:06:19.757Z,54.38
2022-08-30T00:08:47.542Z,53.19
2022-08-30T00:11:20.358Z,54.81
2022-08-30T00:13:48.820Z,54.29
2022-08-30T00:16:15.909Z,51.96
2022-08-30T00:18:44.641Z,51.49
2022-08-30T00:21:12.961Z,53.01
2022-08-30T00:23:40.700Z,52.85
2022-08-30T00:26:08.194Z,54.96
2022-08-30T00:28:35.875Z,53.53
2022-08-30T00:31:02.769Z,53.75
2022-08-30T00:33:30.155Z,52.14
2022-08-30T00:35:57.481Z,53.17
2022-08-30T00:38:24.194Z,54.44
2022-08-30T00:40:52.607Z,54.46
2022-08-30T00:43:31.144Z,55.71
2022-08-30T00:45:58.283Z,55.83
2022-08-30T00:48:25.822Z,53.87
2022-08-30T00:51:01.733Z,54.07
2022-08-30T00:53:35.903Z,54.47
2022-08-30T00:56:04.362Z,55.67
2022-08-30T00:58:35.842Z,57.50
2022-08-30T01:01:04.728Z,59.75
2022-08-30T01:03:34.338Z,58.38
2022-08-30T01:06:02.794Z,58.26
2022-08-30T01:08:29.448Z,58.33
2022-08-30T01:10:57.808Z,59.85
2022-08-30T01:13:27.006Z,58.78
2022-08-30T01:15:55.857Z,58.85
2022-08-30T01:18:23.783Z,57.78
2022-08-30T01:21:07.743Z,57.03
2022-08-30T01:23:40.258Z,56.25
2022-08-30T01:26:08.125Z,56.33
2022-08-30T01:28:35.398Z,57.96
2022-08-30T01:31:02.585Z,59.10
2022-08-30T01:33:29.419Z,60.88
2022-08-30T01:35:57.786Z,61.50
2022-08-30T01:38:29.441Z,60.95
2022-08-30T01:41:07.432Z,59.51
2022-08-30T01:43:34.075Z,58.83
2022-08-30T01:46:00.977Z,59.16
2022-08-30T01:48:30.877Z,58.12
2022-08-30T01:50:58.386Z,56.64
2022-08-30T01:53:25.087Z,59.38
2022-08-30T01:55:51.738Z,58.09
2022-08-30T01:58:18.402Z,57.62
2022-08-30T02:00:45.169Z,57.46
2022-08-30T02:03:11.818Z,57.14
2022-08-30T02:05:38.403Z,57.99
2022-08-30T02:08:05.131Z,59.52
2022-08-30T02:10:32.039Z,57.25
2022-08-30T02:12:58.654Z,57.61
2022-08-30T02:15:25.584Z,58.09
2022-08-30T02:17:52.243Z,56.71
2022-08-30T02:20:18.877Z,56.44
2022-08-30T02:22:49.195Z,56.18
2022-08-30T02:25:20.919Z,56.18
2022-08-30T02:27:48.532Z,56.15
2022-08-30T02:30:15.294Z,56.36
2022-08-30T02:32:41.952Z,57.43
2022-08-30T02:35:09.045Z,58.84
2022-08-30T02:37:35.782Z,60.80
2022-08-30T02:40:03.346Z,61.15
2022-08-30T02:42:29.984Z,62.96
2022-08-30T02:44:56.738Z,61.86
2022-08-30T02:47:23.365Z,58.56
2022-08-30T02:49:50.013Z,58.63
2022-08-30T02:52:16.646Z,57.70
2022-08-30T02:54:43.282Z,58.95
2022-08-30T02:57:20.273Z,57.75
2022-08-30T02:59:47.677Z,59.51
2022-08-30T03:02:15.560Z,60.03
2022-08-30T03:04:42.639Z,60.26
2022-08-30T03:07:09.325Z,59.16
2022-08-30T03:09:36.539Z,60.82
2022-08-30T03:12:03.731Z,61.40
2022-08-30T03:14:30.431Z,60.26
2022-08-30T03:16:57.213Z,60.82
2022-08-30T03:19:23.904Z,60.73
2022-08-30T03:21:50.566Z,60.01
2022-08-30T03:24:17.728Z,58.14
2022-08-30T03:26:46.501Z,58.72
2022-08-30T03:29:13.526Z,61.42
2022-08-30T03:31:52.652Z,60.13
2022-08-30T03:34:20.121Z,59.36
2022-08-30T03:36:46.821Z,59.56
2022-08-30T03:39:14.050Z,56.52
2022-08-30T03:41:40.851Z,57.55
2022-08-30T03:44:07.956Z,55.37
2022-08-30T03:46:37.470Z,54.90
2022-08-30T03:49:05.490Z,54.20
2022-08-30T03:51:32.749Z,56.17
2022-08-30T03:54:00.731Z,55.85
2022-08-30T03:56:27.424Z,56.18
2022-08-30T03:58:54.324Z,55.54
2022-08-30T04:01:21.069Z,55.02
2022-08-30T04:03:48.028Z,54.32
2022-08-30T04:06:14.669Z,51.95
2022-08-30T04:08:42.040Z,54.17
2022-08-30T04:11:09.213Z,53.43
2022-08-30T04:13:35.883Z,53.95
2022-08-30T04:16:02.742Z,52.80
2022-08-30T04:18:29.401Z,54.72
2022-08-30T04:20:56.150Z,52.70
2022-08-30T04:23:22.830Z,54.35
2022-08-30T04:25:49.480Z,53.43
2022-08-30T04:28:16.198Z,52.83
2022-08-30T04:30:44.739Z,53.51
2022-08-30T04:33:13.627Z,53.15
2022-08-30T04:35:42.097Z,54.15
2022-08-30T04:38:09.565Z,53.54
2022-08-30T04:40:42.529Z,52.79
2022-08-30T04:43:09.995Z,54.96
2022-08-30T04:45:38.874Z,55.83
2022-08-30T04:48:06.561Z,55.40
2022-08-30T04:50:33.289Z,54.66
2022-08-30T04:53:00.013Z,53.99
2022-08-30T04:55:26.666Z,52.85
2022-08-30T04:57:53.407Z,52.38
2022-08-30T05:00:20.675Z,53.00
2022-08-30T05:02:47.915Z,53.23
2022-08-30T05:05:14.830Z,51.15
2022-08-30T05:07:41.466Z,50.86
2022-08-30T05:10:11.367Z,50.86
2022-08-30T05:12:38.934Z,52.79
2022-08-30T05:15:06.014Z,51.79
2022-08-30T05:17:32.904Z,50.82
2022-08-30T05:20:01.873Z,52.87
2022-08-30T05:22:28.601Z,52.12
2022-08-30T05:24:55.253Z,51.27
2022-08-30T05:27:21.985Z,51.57
2022-08-30T05:29:48.817Z,50.37
2022-08-30T05:32:15.632Z,52.38
2022-08-30T05:34:42.224Z,51.14
2022-08-30T05:37:08.870Z,52.42
2022-08-30T05:39:45.089Z,53.63
2022-08-30T05:42:18.800Z,52.66
2022-08-30T05:44:45.450Z,51.61
2022-08-30T05:47:12.085Z,51.50
2022-08-30T05:49:38.750Z,50.08
2022-08-30T05:52:05.402Z,50.27
2022-08-30T05:54:32.053Z,50.82
2022-08-30T05:56:58.695Z,49.90
2022-08-30T05:59:25.540Z,53.35
2022-08-30T06:01:58.212Z,51.95
2022-08-30T06:04:26.085Z,53.49
2022-08-30T06:06:52.909Z,52.62
2022-08-30T06:09:19.709Z,51.32
2022-08-30T06:11:47.326Z,51.90
2022-08-30T06:14:14.830Z,50.85
2022-08-30T06:16:42.898Z,51.10
2022-08-30T06:19:09.751Z,50.28
2022-08-30T06:21:37.592Z,49.09
2022-08-30T06:24:07.747Z,47.88
2022-08-30T06:26:39.244Z,47.00
2022-08-30T06:29:06.033Z,47.29
2022-08-30T06:31:33.602Z,48.67
2022-08-30T06:34:00.304Z,46.95
2022-08-30T06:36:27.164Z,47.21
2022-08-30T06:38:56.488Z,46.86
2022-08-30T06:41:26.797Z,45.99
2022-08-30T06:43:54.785Z,47.07
2022-08-30T06:46:28.231Z,46.84
2022-08-30T06:48:56.671Z,45.91
2022-08-30T06:51:33.391Z,45.56
2022-08-30T06:54:03.253Z,47.73
2022-08-30T06:56:31.143Z,49.61
2022-08-30T06:58:58.377Z,49.22
2022-08-30T07:01:28.160Z,48.18
2022-08-30T07:03:54.871Z,50.25
2022-08-30T07:06:23.213Z,49.57
2022-08-30T07:08:50.333Z,45.99
2022-08-30T07:11:37.970Z,41.76
2022-08-30T07:14:06.312Z,39.36
2022-08-30T07:16:34.160Z,37.73
2022-08-30T07:19:01.342Z,37.35
2022-08-30T07:21:41.249Z,35.05
2022-08-30T07:24:08.843Z,34.91
2022-08-30T07:26:43.313Z,33.86
2022-08-30T07:29:10.286Z,34.59
2022-08-30T07:31:37.522Z,34.28
2022-08-30T07:34:05.040Z,34.48
2022-08-30T07:36:32.023Z,35.00
2022-08-30T07:38:59.132Z,34.60
2022-08-30T07:41:33.389Z,34.72
2022-08-30T07:44:01.294Z,36.11
2022-08-30T07:46:28.111Z,37.09
2022-08-30T07:48:54.836Z,37.69
2022-08-30T07:51:24.470Z,37.06
2022-08-30T07:53:53.496Z,37.34
2022-08-30T07:56:20.850Z,36.26
2022-08-30T07:58:48.037Z,36.60
2022-08-30T08:01:15.924Z,36.83
2022-08-30T08:03:43.590Z,38.43
2022-08-30T08:06:12.826Z,39.57
2022-08-30T08:08:40.860Z,39.85
2022-08-30T08:11:16.536Z,39.83
2022-08-30T08:13:53.090Z,40.33
2022-08-30T08:16:28.994Z,39.75
2022-08-30T08:18:58.849Z,40.34
2022-08-30T08:21:26.980Z,37.41
2022-08-30T08:23:53.907Z,37.46
2022-08-30T08:26:21.504Z,37.59
2022-08-30T08:28:48.205Z,37.18
2022-08-30T08:31:33.769Z,36.74
2022-08-30T08:34:02.575Z,36.86
2022-08-30T08:36:30.394Z,35.48
2022-08-30T08:38:57.171Z,35.41
2022-08-30T08:41:51.562Z,35.75
2022-08-30T08:44:23.872Z,37.17
2022-08-30T08:47:13.726Z,36.15
2022-08-30T08:49:45.305Z,38.50
2022-08-30T08:52:23.114Z,38.13
2022-08-30T08:55:01.990Z,37.59
2022-08-30T08:57:35.238Z,37.03
2022-08-30T09:00:13.662Z,37.85
2022-08-30T09:02:43.278Z,38.63
2022-08-30T09:05:17.532Z,39.02
2022-08-30T09:07:51.074Z,41.08
2022-08-30T09:10:29.981Z,42.02
2022-08-30T09:13:05.138Z,41.61
2022-08-30T09:15:34.894Z,41.24
2022-08-30T09:18:05.387Z,42.41
2022-08-30T09:20:44.301Z,43.40
2022-08-30T09:23:13.614Z,41.22
2022-08-30T09:25:56.328Z,42.58
2022-08-30T09:28:34.451Z,42.69
2022-08-30T09:31:03.192Z,40.86
2022-08-30T09:33:30.521Z,40.77
2022-08-30T09:36:12.953Z,40.55
2022-08-30T09:38:40.680Z,40.27
2022-08-30T09:41:36.298Z,39.99
2022-08-30T09:44:15.573Z,41.36
2022-08-30T09:46:48.880Z,41.36
2022-08-30T09:49:41.325Z,42.36
2022-08-30T09:52:41.537Z,41.20
2022-08-30T09:55:08.300Z,42.37
2022-08-30T09:58:03.310Z,42.90
2022-08-30T10:00:39.468Z,44.78
2022-08-30T10:03:47.829Z,43.56
2022-08-30T10:06:25.220Z,44.20
2022-08-30T10:09:13.141Z,44.87
2022-08-30T10:12:00.913Z,45.93
2022-08-30T10:14:59.744Z,45.27
2022-08-30T10:17:49.518Z,45.07
2022-08-30T10:20:33.743Z,44.90
2022-08-30T10:23:09.427Z,43.32
2022-08-30T10:25:46.732Z,41.49
2022-08-30T10:28:42.150Z,41.10
2022-08-30T10:31:20.621Z,41.45
2022-08-30T10:33:58.681Z,40.73
2022-08-30T10:36:36.013Z,39.85
2022-08-30T10:39:04.871Z,39.92
2022-08-30T10:41:31.449Z,39.90
2022-08-30T10:44:21.029Z,40.51
2022-08-30T10:47:04.321Z,40.21
2022-08-30T10:49:40.485Z,37.89
2022-08-30T10:52:23.501Z,40.08
2022-08-30T10:55:18.406Z,42.17
2022-08-30T10:57:45.584Z,43.66
2022-08-30T11:00:22.444Z,43.71
2022-08-30T11:03:06.102Z,42.84
2022-08-30T11:06:21.719Z,41.93
2022-08-30T11:09:13.797Z,43.20
2022-08-30T11:12:01.897Z,43.74
2022-08-30T11:14:30.281Z,44.35
2022-08-30T11:17:00.564Z,45.37
2022-08-30T11:19:40.991Z,44.81
2022-08-30T11:22:21.432Z,45.43
2022-08-30T11:25:16.830Z,43.92
2022-08-30T11:27:55.178Z,43.13
2022-08-30T11:30:26.511Z,43.11
2022-08-30T11:33:05.428Z,43.01
2022-08-30T11:35:39.082Z,43.56
2022-08-30T11:38:25.291Z,43.57
2022-08-30T11:40:54.537Z,44.17
2022-08-30T11:43:41.057Z,42.80
2022-08-30T11:46:34.662Z,43.33
2022-08-30T11:49:13.202Z,43.72
2022-08-30T11:52:27.527Z,43.07
2022-08-30T11:55:15.077Z,42.75
2022-08-30T11:57:47.520Z,44.25
2022-08-30T12:00:28.736Z,42.96
2022-08-30T12:02:59.649Z,43.03
2022-08-30T12:05:38.463Z,43.65
2022-08-30T12:08:24.365Z,43.48
2022-08-30T12:10:58.597Z,42.15
2022-08-30T12:13:34.078Z,42.40
2022-08-30T12:16:06.844Z,42.90
2022-08-30T12:18:47.014Z,43.25
2022-08-30T12:21:13.642Z,42.66
2022-08-30T12:24:06.625Z,42.59
2022-08-30T12:26:33.275Z,41.76
2022-08-30T12:29:26.700Z,42.21
2022-08-30T12:32:00.697Z,42.45
2022-08-30T12:34:49.377Z,41.58
2022-08-30T12:37:23.793Z,41.89
2022-08-30T12:40:02.693Z,42.34
2022-08-30T12:42:33.311Z,43.30
2022-08-30T12:45:06.151Z,46.02
2022-08-30T12:47:48.060Z,45.00
2022-08-30T12:50:22.510Z,44.04
2022-08-30T12:53:09.309Z,45.48
2022-08-30T12:55:59.222Z,45.59
2022-08-30T12:58:38.396Z,44.91
2022-08-30T13:01:24.558Z,41.82
2022-08-30T13:04:03.049Z,44.08
2022-08-30T13:06:49.116Z,44.54
2022-08-30T13:09:42.755Z,43.15
2022-08-30T13:12:26.277Z,44.68
2022-08-30T13:15:08.884Z,43.88
2022-08-30T13:17:38.792Z,44.77
2022-08-30T13:20:17.197Z,43.65
2022-08-30T13:23:02.275Z,44.95
2022-08-30T13:25:29.321Z,44.89
2022-08-30T13:28:01.247Z,44.66
2022-08-30T13:30:30.143Z,46.48
2022-08-30T13:32:57.908Z,46.17
2022-08-30T13:35:25.374Z,46.11
2022-08-30T13:37:52.228Z,46.77
2022-08-30T13:40:21.441Z,45.77
2022-08-30T13:42:49.105Z,45.38
2022-08-30T13:48:07.060Z,44.66
2022-08-30T13:50:33.818Z,42.06
2022-08-30T13:53:00.500Z,41.91
2022-08-30T13:55:28.082Z,41.34
2022-08-30T13:57:58.031Z,38.37
2022-08-30T14:00:26.184Z,38.35
2022-08-30T14:02:53.948Z,39.64
2022-08-30T14:11:04.418Z,39.57
2022-08-30T14:13:32.105Z,39.68
2022-08-30T14:18:48.947Z,39.20
2022-08-30T14:21:16.026Z,37.57
2022-08-30T14:23:42.822Z,38.51
2022-08-30T14:26:28.149Z,37.79
2022-08-30T14:28:59.811Z,37.42
2022-08-30T14:31:26.467Z,39.55
2022-08-30T14:33:53.157Z,38.80
2022-08-30T14:36:23.887Z,39.35
2022-08-30T14:38:51.474Z,39.04
2022-08-30T14:41:18.134Z,39.38
2022-08-30T14:43:45.057Z,39.74
2022-08-30T14:46:15.623Z,39.73
2022-08-30T14:48:43.099Z,40.08
2022-08-30T14:51:22.643Z,38.97
2022-08-30T14:53:53.532Z,39.96
2022-08-30T14:56:23.222Z,40.08
2022-08-30T14:58:53.800Z,39.25
2022-08-30T15:01:21.043Z,39.42
2022-08-30T15:03:48.026Z,39.98
2022-08-30T15:06:15.507Z,40.21
2022-08-30T15:08:43.391Z,39.23
2022-08-30T15:11:18.501Z,38.33
2022-08-30T15:13:46.070Z,38.47
2022-08-30T15:16:14.522Z,38.41
2022-08-30T15:18:41.830Z,37.86
2022-08-30T15:21:09.635Z,39.23
2022-08-30T15:23:36.871Z,39.78
2022-08-30T15:26:05.729Z,39.85
2022-08-30T15:28:34.999Z,40.13
2022-08-30T15:31:06.319Z,39.50
2022-08-30T15:33:35.981Z,40.59
2022-08-30T15:36:05.397Z,40.58
2022-08-30T15:38:32.916Z,39.93
2022-08-30T15:41:03.581Z,40.14
2022-08-30T15:43:31.753Z,40.77
2022-08-30T15:46:29.867Z,40.70
2022-08-30T15:49:01.929Z,40.75
2022-08-30T15:51:30.868Z,41.59
2022-08-30T15:54:09.657Z,42.66
2022-08-30T15:56:41.815Z,42.69
2022-08-30T15:59:09.926Z,43.03
2022-08-30T16:01:37.859Z,43.98
2022-08-30T16:04:04.565Z,43.16
2022-08-30T16:06:34.965Z,42.95
2022-08-30T16:09:01.918Z,42.84
2022-08-30T16:11:28.540Z,42.85
2022-08-30T16:13:56.714Z,43.66
2022-08-30T16:16:25.182Z,45.50
2022-08-30T16:18:54.233Z,49.66
2022-08-30T16:21:31.128Z,51.82
2022-08-30T16:24:00.851Z,52.29
2022-08-30T16:26:29.668Z,53.04
2022-08-30T16:28:56.319Z,52.92
2022-08-30T16:31:24.329Z,53.33
2022-08-30T16:33:53.173Z,55.15
2022-08-30T16:36:22.397Z,54.96
2022-08-30T16:38:49.773Z,53.82
2022-08-30T16:41:21.797Z,53.14
2022-08-30T16:43:53.263Z,53.26
2022-08-30T16:46:27.190Z,50.51
2022-08-30T16:48:57.813Z,50.59
2022-08-30T16:51:27.635Z,53.22
2022-08-30T16:53:56.590Z,54.53
2022-08-30T16:56:26.680Z,53.63
2022-08-30T17:01:41.040Z,53.18
2022-08-30T17:04:08.790Z,54.88
2022-08-30T17:06:36.761Z,54.57
2022-08-30T17:09:05.223Z,55.60
2022-08-30T17:11:42.293Z,57.39
2022-08-30T17:14:10.261Z,56.69
2022-08-30T17:19:28.658Z,55.67
2022-08-30T17:21:56.027Z,57.34
2022-08-30T17:24:22.779Z,55.70
2022-08-30T17:26:51.312Z,58.35
2022-08-30T17:29:18.004Z,60.33
2022-08-30T17:31:44.723Z,62.80
2022-08-30T17:34:11.642Z,62.97
2022-08-30T17:36:38.512Z,65.62
2022-08-30T17:39:10.461Z,67.57
2022-08-30T17:41:43.308Z,67.70
2022-08-30T17:44:12.852Z,68.95
2022-08-30T17:46:40.328Z,67.34
2022-08-30T17:49:10.417Z,66.14
2022-08-30T17:51:37.400Z,65.94
2022-08-30T17:54:06.563Z,64.24
2022-08-30T17:56:35.527Z,63.97
2022-08-30T17:59:03.009Z,62.59
2022-08-30T18:01:30.330Z,62.01
2022-08-30T18:03:57.804Z,60.96
2022-08-30T18:06:31.505Z,61.00
2022-08-30T18:08:58.201Z,61.95
2022-08-30T18:11:27.167Z,61.62
2022-08-30T18:13:53.775Z,61.81
2022-08-30T18:16:21.687Z,63.27
2022-08-30T18:18:57.351Z,65.50
2022-08-30T18:21:25.289Z,67.22
2022-08-30T18:23:52.616Z,71.19
2022-08-30T18:26:24.143Z,74.33
2022-08-30T18:28:51.305Z,78.73
2022-08-30T18:31:18.051Z,78.36
2022-08-30T18:33:48.687Z,79.50
2022-08-30T18:36:16.495Z,79.97
2022-08-30T18:38:44.637Z,78.06
2022-08-30T18:41:13.340Z,80.43
2022-08-30T18:43:40.929Z,79.18
2022-08-30T18:46:10.992Z,79.33
2022-08-30T18:48:38.871Z,79.90
2022-08-30T18:51:19.085Z,77.88
2022-08-30T18:53:47.374Z,77.64
2022-08-30T18:56:16.204Z,77.91
2022-08-30T18:58:45.044Z,79.61
2022-08-30T19:01:12.917Z,77.68
2022-08-30T19:03:43.209Z,75.22
2022-08-30T19:06:11.776Z,75.94
2022-08-30T19:08:39.750Z,76.50
2022-08-30T19:11:09.200Z,77.82
2022-08-30T19:13:37.322Z,78.62
2022-08-30T19:16:05.783Z,77.81
2022-08-30T19:18:34.595Z,77.70
2022-08-30T19:21:04.228Z,75.17
2022-08-30T19:23:34.346Z,75.20
2022-08-30T19:26:01.365Z,74.65
2022-08-30T19:28:28.779Z,74.61
2022-08-30T19:30:58.004Z,74.88
2022-08-30T19:33:24.802Z,75.85
2022-08-30T19:35:53.179Z,74.06
2022-08-30T19:38:21.096Z,77.24
2022-08-30T19:40:52.395Z,75.09
2022-08-30T19:43:21.497Z,73.82
2022-08-30T19:45:53.858Z,74.05
2022-08-30T19:48:22.289Z,73.10
2022-08-30T19:50:49.355Z,71.84
2022-08-30T19:53:16.357Z,69.66
2022-08-30T19:55:44.317Z,69.01
2022-08-30T19:58:12.416Z,71.69
2022-08-30T20:00:39.258Z,72.65
2022-08-30T20:03:12.184Z,71.47
2022-08-30T20:05:50.861Z,72.03
2022-08-30T20:08:17.559Z,73.29
2022-08-30T20:10:45.478Z,75.24
2022-08-30T20:13:12.894Z,75.40
2022-08-30T20:15:39.732Z,74.91
2022-08-30T20:18:13.403Z,76.83
2022-08-30T20:20:41.693Z,79.09
2022-08-30T20:23:16.289Z,79.97
2022-08-30T20:24:23.149Z,53.59
2022-08-30T20:24:25.126Z,57.05
2022-08-30T20:25:51.132Z,79.59
2022-08-30T20:28:18.510Z,82.18
2022-08-30T20:30:45.343Z,80.67
2022-08-30T20:33:13.370Z,81.69
2022-08-30T20:35:44.450Z,81.31
2022-08-30T20:38:15.063Z,78.60
2022-08-30T20:40:41.782Z,75.59
2022-08-30T20:43:09.475Z,77.35
2022-08-30T20:45:36.089Z,76.11
2022-08-30T20:48:02.905Z,77.88
2022-08-30T20:50:29.647Z,77.51
2022-08-30T20:52:56.307Z,76.95
2022-08-30T20:55:24.771Z,78.46
2022-08-30T20:57:51.452Z,78.09
2022-08-30T21:00:18.172Z,77.71
2022-08-30T21:02:46.799Z,77.86
2022-08-30T21:05:20.739Z,77.80
2022-08-30T21:07:47.375Z,75.38
2022-08-30T21:10:21.222Z,75.54
2022-08-30T21:12:50.016Z,76.32
2022-08-30T21:15:36.278Z,76.63
2022-08-30T21:18:03.373Z,75.93
2022-08-30T21:20:30.053Z,74.19
2022-08-30T21:22:56.787Z,73.31
2022-08-30T21:25:23.463Z,72.38
2022-08-30T21:27:50.100Z,70.90
2022-08-30T21:30:18.203Z,70.64
2022-08-30T21:32:44.833Z,71.21
2022-08-30T21:35:11.472Z,71.46
2022-08-30T21:37:38.162Z,71.18
2022-08-30T21:40:05.291Z,72.65
2022-08-30T21:42:31.959Z,74.12
2022-08-30T21:45:01.271Z,73.71
2022-08-30T21:47:27.940Z,71.18
2022-08-30T21:49:57.461Z,69.64
2022-08-30T21:52:24.289Z,69.37
2022-08-30T21:54:53.765Z,69.76
2022-08-30T21:57:20.430Z,69.97
2022-08-30T21:59:47.115Z,69.73
2022-08-30T22:02:13.766Z,69.51
2022-08-30T22:04:41.028Z,71.89
2022-08-30T22:07:07.673Z,70.56
2022-08-30T22:09:35.456Z,71.19
2022-08-30T22:12:06.918Z,70.09
2022-08-30T22:14:35.748Z,72.16
2022-08-30T22:17:02.526Z,72.43
2022-08-30T22:19:33.512Z,71.55
2022-08-30T22:22:01.717Z,70.70
2022-08-30T22:24:32.049Z,70.39
2022-08-30T22:27:00.806Z,70.39
2022-08-30T22:29:27.454Z,70.06
2022-08-30T22:31:54.212Z,70.30
2022-08-30T22:34:21.008Z,69.51
2022-08-30T22:36:47.632Z,70.29
2022-08-30T22:39:14.312Z,69.06
2022-08-30T22:41:42.171Z,69.74
2022-08-30T22:44:10.716Z,69.62
2022-08-30T22:46:37.778Z,71.06
2022-08-30T22:49:06.558Z,72.70
2022-08-30T22:51:34.569Z,76.30
2022-08-30T22:54:03.574Z,78.61
2022-08-30T22:56:30.535Z,77.77
2022-08-30T22:58:57.170Z,74.26
2022-08-30T23:01:30.564Z,72.78
2022-08-30T23:03:58.760Z,71.55
2022-08-30T23:06:25.433Z,70.27
2022-08-30T23:08:52.048Z,70.04
2022-08-30T23:11:19.590Z,70.68
2022-08-30T23:13:47.290Z,68.25
2022-08-30T23:16:15.527Z,69.22
2022-08-30T23:18:43.804Z,68.49
2022-08-30T23:21:14.031Z,70.18
2022-08-30T23:23:41.155Z,71.34
2022-08-30T23:26:07.793Z,69.77
2022-08-30T23:28:34.417Z,69.97
2022-08-30T23:31:17.774Z,69.65
2022-08-30T23:33:44.426Z,68.68
2022-08-30T23:36:14.355Z,67.20
2022-08-30T23:38:41.233Z,68.38
2022-08-30T23:41:08.199Z,69.18
2022-08-30T23:43:34.893Z,68.89
2022-08-30T23:46:01.561Z,69.78
2022-08-30T23:48:28.227Z,69.50
2022-08-30T23:50:54.873Z,69.22
2022-08-30T23:53:21.472Z,71.41
2022-08-30T23:55:48.307Z,69.12
2022-08-30T23:58:14.964Z,69.50
